Clyde River Airport
CYCY : now visible

Airfield :











YOU CAN JOIN US ON...

 
LOGIN :

Register | Disclaimer

   EN    FR    IT 

 









Legend :    VFR   Marginal VFR   IFR   Intensive IFR   Very Intensive IFR
Visi :
Ceiling :
>= 8 km
>= 3000ft
5 to 8 km
1000 to 3000 ft
1500m to 5 km
500 to 1000 ft
800 to 1500m
200 to 500 ft
< 800m
< 200 ft
Symbols :   Thunderstorms  Fog  Heavy snow  Heavy precipitations  Wind > 20 kt






- Airport Elevation : 87 ft
- IATA code : YCY


CYCY - Clyde River

CURRENT METAR :
  • 210400Z AUTO 30012KT 6SM -SN OVC024 M26/M29 A2964 RMK SLP043

EXPIRED METARs :
  • 210356Z AUTO 31012KT 6SM -SN OVC024 M26/M29 A2964 RMK SLP043
  • 210326Z AUTO 32012G18KT 2 1/2SM -SN BKN024 OVC038 M25/M28 A2964 RMK SLP042
  • 210312Z AUTO 32013KT 5SM -SN FEW026 OVC038 M25/M28 A2963 RMK SLP040
  • 210300Z AUTO 31012KT 7SM -SN FEW026 OVC038 M26/M28 A2963 RMK SLP040
  • 210229Z AUTO 31011KT 6SM -SN FEW028 OVC038 M26/M29 A2963 RMK SLP041
  • 210219Z AUTO 31014KT 3SM -SN FEW028 OVC038 M26/M29 A2963 RMK SLP040
  • 210214Z AUTO 31014KT 2 1/4SM -SN OVC038 M26/M29 A2963 RMK VIS VRB 1 1/2-3 SLP040

TAF AMD TAF CYCY
Valid from the 21 at 01:00 until the 21 at 13:00 UTC


210122Z 2101/2113 32015G25KT 6SM -SN BKN040
TEMPO 2101/2113 1SM -SN BLSN OVC020 RMK FCST BASED ON AUTO OBS. NXT FCST BY 210700Z



MET'MAP, your aeronautical weather chart ! - Copyright ORBIFLY December 2007 - Disclaimer

ORBIFLY MET'MAP TEAM :

Programming & Development : Alexandra Zaïnal
Concept & original design : Baudouin d'Aumeries
Assistance for programming : Marc-Olivier Méhu
Technical & hardware support : Manuel Goepfert

Contact : metmap@orbifly.com




SOURCES & CREDITS :

   NOAA       Earth
Advisory